Omaha, NE

3:47 AM CDT en Junio 23, 2017 (GMT -0500)
Midtown Crossing area | | Change Station

Alt 1161 ft 41.26 °N, 95.96 °W | Updated 5 seconds ago

Parcialmente nublado
Parcialmente nublado
70.0 ° F
Sensación térmica 70.0 ° F
N
2.0
Viento Variable Viento desde Oeste
Gusts 4.9 mph

Hoy
Alta -- | Baja -- ° F
--% Posibilidad de precipitaciones
Ayer
Alta -- | Baja -- ° F
Precip. -- pul
Presión 29.78 pul
Visibilidad 10.0 Millas
Nubes Baja 10000 ft
Muy nublado 11000 ft
Punto de rocío 27 ° F
Humedad 20%
Precipitaciones 0.00 pul
Espesor de la nieve No disponible.
5:51 AM 9:00 PM
Creciente menguante, 1% visible
METAR KOMA 230752Z 01010KT 10SM FEW100 BKN110 21/16 A2980 RMK AO2 SLP082 T02110161
Presión 29.78 pul
Visibilidad 10.0 Millas
Nubes Baja 10000 ft
Muy nublado 11000 ft
Punto de rocío 27 ° F
Humedad 20%
Precipitaciones 0.00 pul
Espesor de la nieve No disponible.
5:51 AM 9:00 PM
Creciente menguante, 1% visible
METAR KOMA 230752Z 01010KT 10SM FEW100 BKN110 21/16 A2980 RMK AO2 SLP082 T02110161

Get Severe Weather Alerts

Thanks for signing up!

Be on the lookout for a verification email in your inbox.

You'll start receiving the daily forecast at 6 AM.

×

10-Day Weather Forecast

Almanac

Astronomía

Jun. 23, 2017 Salida Puesta
Hora real
Crepúsculo civil
Crepúsculo náutico
Crepúsculo astronómico
Luna
Horas de luz
Horas de luz
Tomorrow will be .
, % of the Moon is Illuminated

Extremos de hoy

Máximos del estado Bajos del estado

Community

WunderPhotos

Category 6

Welcome to Category 6. This is the collective home for Weather Underground's featured writeups by Dr. Jeff Masters (right), Bob Henson (left), Chris Burt, and other regular contributors.

Nearby

Calidad del aire

  Calidad del aire Índice AQ Contaminante
Not available.

Grosos de nieve

Estación Profundido Altura

Actividad de terremotos

Ciudad Distance Mag. Tiempo y dato
Magnitud mínima muestra es 2,5.

Temperaturas de aguas costeras

Lugar Temperatura

Stations

Estaciones meteorológicas cercanas

Ubicación de la estación Temp. Vientos helados Punto de rocío Humedad Viento Precip. Alt Actualizado Tipo
                   

Watches & Warnings

There are currently no watches in effect.